Time;durP1;ratioP1;P1;durP2;ratioP2;P2;SDS_P1;SDS_P2;PMS_P1;PMS_P2;Temp;Humidity;BMP_temperature;BMP_pressure;BME280_temperature;BME280_humidity;BME280_pressure;Samples;Min_cycle;Max_cycle;Signal;HPM_P1;HPM_P2
2024/03/21 00:00:21;;;;;;;7.38;4.40;;;;;;;12.00;60.49;96955.09;4974836;28;20333;-76
2024/03/21 00:02:47;;;;;;;6.28;4.28;;;;;;;11.92;58.63;96941.13;4958413;28;20055;-76
2024/03/21 00:05:14;;;;;;;6.78;4.95;;;;;;;11.84;59.58;96943.78;4955257;28;20047;-77
2024/03/21 00:07:40;;;;;;;7.32;3.80;;;;;;;11.84;60.08;96946.41;4954987;29;20635;-76
2024/03/21 00:10:09;;;;;;;10.18;5.43;;;;;;;11.81;59.57;96946.78;4954741;28;20074;-76
2024/03/21 00:12:36;;;;;;;9.68;5.65;;;;;;;11.77;60.37;96942.09;4954992;28;20479;-77
2024/03/21 00:15:02;;;;;;;8.43;5.55;;;;;;;11.74;58.71;96944.09;4954953;28;20396;-76
2024/03/21 00:17:28;;;;;;;7.78;5.22;;;;;;;11.70;59.02;96932.38;4954952;29;20499;-76
2024/03/21 00:19:54;;;;;;;7.72;5.10;;;;;;;11.67;58.89;96930.09;4954965;29;20106;-76
2024/03/21 00:22:20;;;;;;;7.50;4.88;;;;;;;11.70;60.44;96931.56;4954636;28;20054;-76
2024/03/21 00:24:47;;;;;;;7.40;4.70;;;;;;;11.70;59.87;96940.19;4954242;29;20055;-76
2024/03/21 00:27:12;;;;;;;9.15;5.60;;;;;;;11.69;58.81;96937.75;4954693;29;20055;-76
2024/03/21 00:29:40;;;;;;;7.53;4.82;;;;;;;11.67;58.67;96940.53;4954754;29;20066;-76
2024/03/21 00:32:06;;;;;;;6.95;4.65;;;;;;;11.68;60.05;96928.31;4954217;28;20062;-76
2024/03/21 00:34:33;;;;;;;7.72;5.20;;;;;;;11.69;59.13;96922.09;4954389;29;20055;-77
2024/03/21 00:36:59;;;;;;;9.10;4.90;;;;;;;11.69;59.17;96933.34;4954276;28;20063;-77
2024/03/21 00:39:25;;;;;;;6.28;4.57;;;;;;;11.73;59.75;96933.81;4954251;29;20091;-77
2024/03/21 00:41:51;;;;;;;6.85;4.90;;;;;;;11.74;59.11;96930.19;4953933;28;20055;-76
2024/03/21 00:44:18;;;;;;;7.38;5.10;;;;;;;11.72;60.71;96926.97;4954207;29;20047;-76
2024/03/21 00:46:45;;;;;;;6.95;5.28;;;;;;;11.68;58.80;96917.84;4953970;28;20511;-76
2024/03/21 00:49:16;;;;;;;9.18;5.72;;;;;;;11.64;58.82;96919.22;4953822;29;20051;-76
2024/03/21 00:51:42;;;;;;;7.47;5.25;;;;;;;11.63;61.16;96907.13;4954445;28;20147;-76
2024/03/21 00:54:09;;;;;;;8.23;5.10;;;;;;;11.62;60.67;96916.75;4954310;28;20143;-77
2024/03/21 00:56:35;;;;;;;7.03;5.22;;;;;;;11.59;59.34;96911.91;4953826;29;20066;-77
2024/03/21 00:59:02;;;;;;;9.32;5.53;;;;;;;11.54;59.30;96915.06;4953372;29;20059;-77
2024/03/21 01:01:27;;;;;;;8.57;5.65;;;;;;;11.52;59.08;96908.38;4953414;28;20419;-76
2024/03/21 01:03:56;;;;;;;7.40;5.45;;;;;;;11.46;59.73;96909.94;4954995;29;20066;-77
2024/03/21 01:06:21;;;;;;;8.02;5.50;;;;;;;11.39;59.29;96909.03;4954011;29;20062;-76
2024/03/21 01:08:48;;;;;;;7.88;4.75;;;;;;;11.38;59.14;96893.53;4954036;29;20426;-76
2024/03/21 01:11:14;;;;;;;8.50;5.78;;;;;;;11.38;59.15;96896.13;4953768;28;20051;-76
2024/03/21 01:13:41;;;;;;;7.28;5.15;;;;;;;11.38;59.14;96902.16;4953896;28;20139;-76
2024/03/21 01:16:08;;;;;;;10.63;5.20;;;;;;;11.41;59.62;96901.00;4967664;28;20059;-77
2024/03/21 01:18:35;;;;;;;7.63;5.28;;;;;;;11.43;59.14;96901.63;4970599;29;20090;-77
2024/03/21 01:21:03;;;;;;;9.23;5.30;;;;;;;11.42;58.99;96905.25;4964340;28;20055;-76
2024/03/21 01:23:30;;;;;;;6.35;5.07;;;;;;;11.41;58.94;96898.38;4955389;29;20091;-76
2024/03/21 01:25:56;;;;;;;8.98;5.45;;;;;;;11.38;59.05;96894.34;4954706;28;20086;-76
2024/03/21 01:28:22;;;;;;;7.82;5.38;;;;;;;11.37;59.10;96908.41;4954549;28;20126;-77
2024/03/21 01:30:49;;;;;;;11.15;5.32;;;;;;;11.37;59.11;96895.34;4954077;28;20055;-76
2024/03/21 01:33:15;;;;;;;6.88;5.18;;;;;;;11.36;59.10;96890.28;4954791;29;20439;-76
2024/03/21 01:35:41;;;;;;;6.72;5.20;;;;;;;11.34;59.19;96893.06;4954322;29;20047;-77
2024/03/21 01:38:09;;;;;;;8.32;5.50;;;;;;;11.36;59.32;96895.50;4954152;28;20122;-76
2024/03/21 01:40:36;;;;;;;10.48;5.78;;;;;;;11.37;59.13;96895.34;4954482;29;20055;-76
2024/03/21 01:43:02;;;;;;;7.32;4.97;;;;;;;11.36;59.10;96906.75;4954434;28;20059;-77
2024/03/21 01:45:28;;;;;;;6.03;4.43;;;;;;;11.32;59.24;96885.41;4954577;29;20055;-76
2024/03/21 01:47:58;;;;;;;8.10;5.50;;;;;;;11.30;59.29;96890.00;4954108;28;20074;-77
2024/03/21 01:50:24;;;;;;;7.25;5.30;;;;;;;11.26;59.32;96882.69;4954347;28;20118;-76
2024/03/21 01:52:51;;;;;;;6.82;5.00;;;;;;;11.21;59.63;96877.19;4953937;28;20059;-77
2024/03/21 01:55:19;;;;;;;7.50;4.57;;;;;;;11.17;59.72;96881.16;4954050;28;20047;-76
2024/03/21 01:57:46;;;;;;;7.72;5.05;;;;;;;11.16;59.86;96879.56;4953747;28;20570;-75
2024/03/21 02:00:12;;;;;;;9.85;5.35;;;;;;;11.17;59.79;96879.34;4953381;28;20423;-76
2024/03/21 02:02:39;;;;;;;8.20;5.35;;;;;;;11.18;59.84;96878.38;4953338;28;20051;-76
2024/03/21 02:05:07;;;;;;;7.20;4.88;;;;;;;11.18;59.86;96875.75;4953807;29;20055;-76
2024/03/21 02:07:34;;;;;;;9.27;5.60;;;;;;;11.17;59.97;96875.94;4952647;28;20114;-76
2024/03/21 02:09:59;;;;;;;5.05;4.35;;;;;;;11.17;59.97;96873.31;4953000;29;20062;-76
2024/03/21 02:12:44;;;;;;;8.45;5.00;;;;;;;11.16;60.40;96877.75;4952628;28;20054;-76
2024/03/21 02:15:11;;;;;;;8.27;5.35;;;;;;;11.17;60.20;96873.31;4952406;29;20420;-76
2024/03/21 02:17:39;;;;;;;5.50;4.88;;;;;;;11.16;61.93;96874.31;4952585;28;20106;-76
2024/03/21 02:20:06;;;;;;;6.68;4.65;;;;;;;11.16;60.75;96869.09;4952648;29;20405;-76
2024/03/21 02:22:36;;;;;;;5.40;4.88;;;;;;;11.13;60.58;96865.84;4952956;28;20070;-76
2024/03/21 02:25:04;;;;;;;6.43;4.95;;;;;;;11.14;61.63;96867.47;4952557;29;20047;-77
2024/03/21 02:27:31;;;;;;;6.40;4.68;;;;;;;11.17;61.06;96873.31;4952476;28;20048;-76
2024/03/21 02:29:57;;;;;;;6.93;4.70;;;;;;;11.18;60.77;96874.97;4955052;28;20063;-76
2024/03/21 02:32:23;;;;;;;8.45;4.55;;;;;;;11.20;60.53;96873.00;4955817;28;20113;-76
2024/03/21 02:34:49;;;;;;;7.35;4.95;;;;;;;11.23;62.03;96876.03;4955733;28;20110;-76
2024/03/21 02:37:16;;;;;;;4.88;3.85;;;;;;;11.27;63.48;96876.50;4955598;28;20110;-76
2024/03/21 02:39:45;;;;;;;5.05;4.18;;;;;;;11.27;61.29;96871.28;4955786;28;20055;-76
2024/03/21 02:42:12;;;;;;;8.32;4.05;;;;;;;11.24;60.90;96871.63;4955724;28;20078;-76
2024/03/21 02:44:37;;;;;;;8.88;5.15;;;;;;;11.18;60.82;96874.97;4955571;29;20055;-76
2024/03/21 02:47:04;;;;;;;6.80;4.30;;;;;;;11.14;60.73;96877.91;4955617;28;20134;-75
2024/03/21 02:49:30;;;;;;;7.40;4.70;;;;;;;11.14;63.49;96872.69;4955559;28;20059;-76
2024/03/21 02:51:57;;;;;;;5.88;4.72;;;;;;;11.16;61.60;96877.75;4955398;28;20085;-76
2024/03/21 02:54:22;;;;;;;7.35;4.78;;;;;;;11.18;61.63;96877.56;4955126;28;20507;-76
2024/03/21 02:56:50;;;;;;;7.38;4.43;;;;;;;11.19;64.12;96887.00;4955243;28;20078;-76
2024/03/21 02:59:16;;;;;;;5.65;4.40;;;;;;;11.18;61.93;96878.38;4955292;28;20054;-76
2024/03/21 03:01:43;;;;;;;5.97;4.10;;;;;;;11.14;61.42;96883.13;4955240;28;20502;-76
2024/03/21 03:04:10;;;;;;;5.80;4.72;;;;;;;11.12;62.14;96879.88;4954973;29;20526;-76
2024/03/21 03:06:36;;;;;;;6.35;4.60;;;;;;;11.11;61.48;96888.72;4955178;29;20423;-76
2024/03/21 03:09:02;;;;;;;9.15;4.00;;;;;;;11.09;61.28;96884.69;4955200;28;20062;-76
2024/03/21 03:11:29;;;;;;;6.80;4.32;;;;;;;11.05;61.22;96881.59;4954726;28;20446;-76
2024/03/21 03:13:56;;;;;;;5.38;3.97;;;;;;;11.01;62.11;96880.31;4955020;29;20051;-76
2024/03/21 03:16:22;;;;;;;5.97;4.47;;;;;;;10.99;61.70;96879.69;4954616;29;20051;-76
2024/03/21 03:18:48;;;;;;;8.07;5.38;;;;;;;10.95;61.42;96886.25;4955192;28;20055;-76
2024/03/21 03:21:15;;;;;;;10.10;4.32;;;;;;;10.91;61.48;96882.38;4954824;28;20427;-76
2024/03/21 03:23:41;;;;;;;7.00;4.68;;;;;;;10.86;61.47;96890.72;4954983;29;20400;-76
2024/03/21 03:26:07;;;;;;;7.38;4.43;;;;;;;10.83;61.72;96900.72;4954592;28;20062;-76
2024/03/21 03:28:33;;;;;;;5.63;4.03;;;;;;;10.79;63.72;96895.03;4954947;28;20215;-76
2024/03/21 03:31:01;;;;;;;9.65;4.47;;;;;;;10.82;64.39;96891.25;4954936;28;20507;-77
2024/03/21 03:36:11;;;;;;;6.72;4.03;;;;;;;10.83;64.04;96885.88;4954244;29;20062;-76
2024/03/21 03:38:38;;;;;;;6.25;4.32;;;;;;;10.80;62.91;96882.78;4954924;29;20059;-77
2024/03/21 03:41:05;;;;;;;8.45;3.53;;;;;;;10.78;63.89;96871.72;4953882;28;20515;-76
2024/03/21 03:43:31;;;;;;;8.48;4.28;;;;;;;10.76;62.97;96873.69;4954481;28;20070;-76
2024/03/21 03:45:58;;;;;;;8.15;4.32;;;;;;;10.72;62.68;96868.84;4954502;29;20058;-76
2024/03/21 03:48:26;;;;;;;7.00;4.15;;;;;;;10.67;62.48;96875.56;4955374;28;20059;-76
2024/03/21 03:50:52;;;;;;;6.70;4.07;;;;;;;10.67;64.73;96886.00;4954571;28;20055;-76
2024/03/21 03:53:18;;;;;;;7.05;4.38;;;;;;;10.66;63.17;96887.78;4954211;28;20055;-76
2024/03/21 03:55:45;;;;;;;8.98;3.60;;;;;;;10.60;62.63;96895.50;4953798;28;20054;-76
2024/03/21 03:58:10;;;;;;;8.30;4.35;;;;;;;10.52;62.60;96894.59;4954445;28;20059;-76
2024/03/21 04:00:37;;;;;;;7.35;3.67;;;;;;;10.45;62.73;96901.50;4954518;29;20066;-76
2024/03/21 04:03:03;;;;;;;8.13;4.00;;;;;;;10.34;62.70;96901.88;4954185;28;20051;-76
2024/03/21 04:05:31;;;;;;;5.22;3.40;;;;;;;10.26;63.08;96904.50;4954053;28;20114;-76
2024/03/21 04:07:57;;;;;;;8.07;3.70;;;;;;;10.20;63.24;96903.41;4952647;28;20059;-77
2024/03/21 04:10:23;;;;;;;6.93;4.72;;;;;;;10.14;63.16;96901.47;4953873;28;20518;-76
2024/03/21 04:12:49;;;;;;;6.60;3.78;;;;;;;10.08;63.41;96905.59;4953943;28;20455;-76
2024/03/21 04:15:16;;;;;;;7.72;3.83;;;;;;;10.04;63.60;96911.31;4953900;29;20105;-77
2024/03/21 04:17:42;;;;;;;6.07;4.18;;;;;;;10.00;63.70;96905.63;4953686;28;20511;-77
2024/03/21 04:20:09;;;;;;;5.57;3.83;;;;;;;9.95;63.89;96907.09;4954097;29;20094;-76
2024/03/21 04:22:36;;;;;;;6.25;4.15;;;;;;;9.92;64.18;96907.44;4954055;28;20081;-76
2024/03/21 04:25:03;;;;;;;5.38;4.30;;;;;;;9.93;65.13;96915.09;4953896;28;20460;-77
2024/03/21 04:27:29;;;;;;;7.80;4.35;;;;;;;9.97;65.76;96916.41;4953706;29;20059;-76
2024/03/21 04:29:55;;;;;;;9.60;4.00;;;;;;;10.03;65.34;96914.88;4953390;29;20066;-76
2024/03/21 04:32:21;;;;;;;6.65;3.38;;;;;;;10.07;66.86;96913.56;4953883;28;20059;-76
2024/03/21 04:34:48;;;;;;;5.65;4.18;;;;;;;10.10;66.47;96921.03;4953694;29;20066;-76
2024/03/21 04:37:16;;;;;;;7.70;4.50;;;;;;;10.10;66.01;96927.09;4953747;28;20463;-77
2024/03/21 04:39:45;;;;;;;7.47;3.55;;;;;;;10.12;66.43;96924.28;4953638;29;20731;-76
2024/03/21 04:42:12;;;;;;;6.60;4.20;;;;;;;10.16;65.37;96935.19;4953554;28;20062;-77
2024/03/21 04:44:39;;;;;;;6.90;4.30;;;;;;;10.16;65.72;96936.00;4953341;29;20058;-77
2024/03/21 04:47:06;;;;;;;13.30;4.88;;;;;;;10.18;65.86;96936.63;4972493;29;20065;-77
2024/03/21 04:49:32;;;;;;;7.43;4.60;;;;;;;10.20;65.37;96933.88;4974719;29;20058;-76
2024/03/21 04:51:58;;;;;;;7.82;3.95;;;;;;;10.16;65.39;96936.00;4968610;28;20051;-77
2024/03/21 04:54:24;;;;;;;6.35;4.43;;;;;;;10.14;65.18;96932.75;4971159;28;20055;-77
2024/03/21 04:56:51;;;;;;;8.23;4.25;;;;;;;10.13;65.36;96940.75;4963017;28;20447;-77
2024/03/21 04:59:20;;;;;;;8.32;4.57;;;;;;;10.11;65.48;96940.91;4954572;29;20055;-77
2024/03/21 05:01:46;;;;;;;6.65;4.45;;;;;;;10.10;65.37;96929.69;4953838;28;20051;-76
2024/03/21 05:04:12;;;;;;;7.82;4.93;;;;;;;10.10;65.57;96934.06;4953716;28;20507;-77
2024/03/21 05:06:38;;;;;;;5.88;3.83;;;;;;;10.11;66.46;96938.31;4953375;28;20114;-78
2024/03/21 05:09:04;;;;;;;4.65;3.60;;;;;;;10.14;65.89;96937.97;4953541;29;20062;-76
2024/03/21 05:11:31;;;;;;;8.95;4.32;;;;;;;10.18;65.87;96936.63;4953309;28;20118;-77
2024/03/21 05:13:58;;;;;;;6.10;4.10;;;;;;;10.21;66.49;96938.94;4953257;28;20062;-77
2024/03/21 05:16:26;;;;;;;6.35;4.38;;;;;;;10.24;66.07;96940.38;4952856;29;20051;-76
2024/03/21 05:18:51;;;;;;;7.10;4.50;;;;;;;10.24;65.82;96933.34;4953462;29;20122;-77
2024/03/21 05:21:18;;;;;;;8.18;5.00;;;;;;;10.24;65.71;96935.16;4953569;28;20059;-76
2024/03/21 05:23:43;;;;;;;8.02;4.65;;;;;;;10.23;65.71;96936.97;4953577;29;20055;-76
2024/03/21 05:26:10;;;;;;;6.78;4.82;;;;;;;10.23;66.26;96941.34;4953303;29;20392;-76
2024/03/21 05:28:36;;;;;;;7.03;5.00;;;;;;;10.26;65.99;96941.81;4952855;29;20532;-76
2024/03/21 05:31:21;;;;;;;7.57;4.93;;;;;;;10.26;66.13;96947.03;4953261;28;20063;-76
2024/03/21 05:33:47;;;;;;;7.57;5.03;;;;;;;10.25;65.94;96953.22;4953039;29;20055;-76
2024/03/21 05:36:14;;;;;;;7.57;4.60;;;;;;;10.24;66.00;96959.44;4952953;28;20058;-76
2024/03/21 05:38:40;;;;;;;7.45;4.88;;;;;;;10.26;66.11;96956.66;4953041;28;20070;-76
2024/03/21 05:41:07;;;;;;;5.85;4.57;;;;;;;10.24;66.28;96956.00;4952846;28;20086;-76
2024/03/21 05:43:33;;;;;;;5.53;4.57;;;;;;;10.25;66.51;96944.59;4953276;28;20062;-77
2024/03/21 05:46:00;;;;;;;8.65;4.53;;;;;;;10.24;66.50;96949.00;4953066;29;20066;-76
2024/03/21 05:48:27;;;;;;;9.40;4.85;;;;;;;10.24;66.40;96946.38;4955865;29;20055;-78
2024/03/21 05:50:54;;;;;;;5.90;4.22;;;;;;;10.29;67.65;96957.13;4953569;28;20078;-79
2024/03/21 05:53:19;;;;;;;8.40;5.60;;;;;;;10.39;68.47;96951.72;4939237;28;20090;-79
2024/03/21 05:55:54;;;;;;;9.40;5.47;;;;;;;10.43;67.13;96944.34;5163555;23;21079;-80
2024/03/21 05:58:22;;;;;;;10.82;5.82;;;;;;;10.47;66.73;96945.63;4974628;28;20058;-79
2024/03/21 06:00:57;;;;;;;9.30;5.10;;;;;;;10.48;66.84;96944.66;4958687;28;20066;-79
2024/03/21 06:03:24;;;;;;;8.75;4.68;;;;;;;10.46;66.48;96952.66;4971421;28;20525;-79
2024/03/21 06:05:52;;;;;;;10.18;4.90;;;;;;;10.45;66.48;96951.03;4977162;28;20063;-79
2024/03/21 06:08:18;;;;;;;7.82;4.47;;;;;;;10.45;66.94;96951.03;4977327;28;20066;-80
2024/03/21 06:10:44;;;;;;;9.52;4.95;;;;;;;10.47;67.14;96945.63;4963643;28;20079;-79
2024/03/21 06:13:11;;;;;;;8.20;5.05;;;;;;;10.51;66.99;96939.09;4958024;28;20059;-80
2024/03/21 06:15:38;;;;;;;6.97;4.30;;;;;;;10.51;66.86;96942.50;4958775;28;20090;-80
2024/03/21 06:18:05;;;;;;;14.02;4.80;;;;;;;10.54;67.03;96940.53;4958881;29;20055;-79
2024/03/21 06:20:33;;;;;;;7.00;4.00;;;;;;;10.57;68.88;96941.00;4967154;28;20426;-80
2024/03/21 06:23:01;;;;;;;5.82;4.65;;;;;;;10.68;71.77;96945.81;4989962;28;20058;-80
2024/03/21 06:25:29;;;;;;;6.55;5.05;;;;;;;10.82;72.49;96946.06;4973559;28;20047;-80
2024/03/21 06:27:55;;;;;;;9.93;6.20;;;;;;;10.91;71.50;96939.78;4974172;29;20063;-80
2024/03/21 06:30:23;;;;;;;8.40;5.72;;;;;;;11.00;72.30;96943.97;4972188;29;20059;-80
2024/03/21 06:32:50;;;;;;;11.57;6.95;;;;;;;11.01;69.03;96944.78;4974109;29;20062;-81
2024/03/21 06:35:18;;;;;;;12.25;6.38;;;;;;;10.99;70.73;96958.00;4960056;29;20430;-81
2024/03/21 06:37:44;;;;;;;10.95;6.72;;;;;;;11.00;68.61;96954.41;4957394;29;20451;-81
2024/03/21 06:40:14;;;;;;;10.82;6.80;;;;;;;11.02;71.94;96962.88;4957287;29;20098;-81
2024/03/21 06:42:40;;;;;;;12.48;7.72;;;;;;;11.04;69.35;96966.13;4958628;29;20059;-81
2024/03/21 06:51:43;;;;;;;13.30;8.55;;;;;;;11.02;68.58;96973.31;4977621;28;20466;-82
2024/03/21 06:54:09;;;;;;;15.73;8.30;;;;;;;11.06;68.95;96984.22;4959734;28;20057;-82
2024/03/21 06:56:38;;;;;;;12.73;8.80;;;;;;;11.08;72.41;96988.25;4959694;28;20047;-81
2024/03/21 06:59:04;;;;;;;12.02;8.55;;;;;;;11.17;73.07;96990.81;4959279;28;20055;-82
2024/03/21 07:01:31;;;;;;;15.45;8.40;;;;;;;11.23;69.76;96997.97;4960137;28;20158;-82
2024/03/21 07:03:58;;;;;;;16.40;9.30;;;;;;;11.25;68.22;96999.41;4961166;28;20055;-82
2024/03/21 07:06:25;;;;;;;14.13;8.80;;;;;;;11.30;68.15;96996.25;4959937;28;20065;-81
2024/03/21 07:08:52;;;;;;;16.33;8.85;;;;;;;11.42;71.73;97005.31;4960126;28;20526;-82
2024/03/21 07:11:18;;;;;;;17.35;10.30;;;;;;;11.51;68.95;97008.66;4958150;28;20059;-81
2024/03/21 07:13:46;;;;;;;15.23;10.55;;;;;;;11.58;69.39;97017.41;4942954;28;20051;-82
2024/03/21 07:16:17;;;;;;;19.08;9.73;;;;;;;11.63;67.30;97012.47;4951374;28;20052;-81
2024/03/21 07:18:43;;;;;;;17.08;9.32;;;;;;;11.66;67.50;97014.72;4951203;29;20078;-81
2024/03/21 07:21:10;;;;;;;18.92;8.63;;;;;;;11.68;66.96;97020.56;4940757;29;20051;-81
2024/03/21 07:23:37;;;;;;;12.70;8.25;;;;;;;11.74;70.31;97030.31;4940341;29;20507;-82
2024/03/21 07:26:06;;;;;;;10.05;6.82;;;;;;;11.81;69.17;97035.66;4940388;29;20187;-79
2024/03/21 07:28:32;;;;;;;12.85;7.25;;;;;;;11.87;70.64;97040.16;4947555;28;20510;-80
2024/03/21 07:31:02;;;;;;;10.70;7.50;;;;;;;11.93;69.81;97039.47;4944674;28;20059;-79
2024/03/21 07:33:29;;;;;;;13.02;7.75;;;;;;;11.98;68.75;97048.56;4942133;29;20472;-80
2024/03/21 07:35:58;;;;;;;9.75;7.03;;;;;;;12.03;69.04;97054.91;4960265;29;20051;-80
2024/03/21 07:38:24;;;;;;;12.65;6.32;;;;;;;12.10;69.18;97055.00;4961691;29;20397;-79
2024/03/21 07:40:56;;;;;;;8.43;6.70;;;;;;;12.21;73.48;97061.56;4945928;28;20507;-79
2024/03/21 07:43:23;;;;;;;7.90;5.80;;;;;;;12.29;68.66;97067.53;4941736;29;20059;-81
2024/03/21 07:45:50;;;;;;;11.05;6.43;;;;;;;12.28;67.13;97068.50;4947924;28;20511;-82
2024/03/21 07:48:18;;;;;;;11.88;6.82;;;;;;;12.30;66.94;97071.75;4958168;28;20054;-83
2024/03/21 07:50:45;;;;;;;9.75;6.55;;;;;;;12.32;66.20;97064.53;4941290;29;20126;-82
2024/03/21 07:53:11;;;;;;;11.30;5.75;;;;;;;12.34;66.50;97067.00;4941160;29;20420;-82
2024/03/21 07:58:14;;;;;;;7.82;5.25;;;;;;;12.42;67.11;97069.50;5198103;23;20055;-80
2024/03/21 08:00:40;;;;;;;6.20;5.20;;;;;;;12.51;69.70;97068.41;4977494;28;20115;-81
2024/03/21 08:03:08;;;;;;;7.15;4.40;;;;;;;12.60;69.10;97066.50;4978623;28;20047;-80
2024/03/21 08:05:38;;;;;;;6.53;4.32;;;;;;;12.62;67.09;97071.56;4977575;28;20435;-80
2024/03/21 08:08:09;;;;;;;5.65;3.70;;;;;;;12.64;66.95;97074.78;4984804;28;20038;-81
2024/03/21 08:10:37;;;;;;;4.88;4.07;;;;;;;12.66;68.60;97073.63;4982276;28;20077;-81
2024/03/21 08:13:10;;;;;;;6.93;4.68;;;;;;;12.70;68.15;97076.69;4998433;28;20053;-82
2024/03/21 08:15:38;;;;;;;5.30;4.38;;;;;;;12.73;69.10;97071.91;4994772;28;20513;-80
2024/03/21 08:18:11;;;;;;;3.42;3.00;;;;;;;12.77;67.22;97062.69;4964288;28;20058;-80
2024/03/21 08:20:40;;;;;;;4.18;3.28;;;;;;;12.82;67.84;97058.72;4977656;28;20057;-79
2024/03/21 08:23:09;;;;;;;4.20;3.28;;;;;;;12.87;67.40;97062.38;4977383;28;20531;-80
2024/03/21 08:25:36;;;;;;;7.65;3.83;;;;;;;12.94;67.24;97065.06;4976987;28;20059;-80
2024/03/21 08:28:06;;;;;;;6.63;4.15;;;;;;;13.01;69.04;97071.22;4977583;28;20044;-79
2024/03/21 08:30:34;;;;;;;6.68;4.00;;;;;;;13.05;67.58;97061.97;4958267;28;20102;-79
2024/03/21 08:33:06;;;;;;;10.98;3.97;;;;;;;13.11;68.50;97068.28;4963007;28;20070;-79
2024/03/21 08:35:34;;;;;;;6.05;2.70;;;;;;;13.15;68.70;97065.09;4956534;29;20062;-79
2024/03/21 08:38:07;;;;;;;4.55;3.10;;;;;;;13.17;66.83;97063.09;4957371;29;20055;-79
2024/03/21 08:40:37;;;;;;;4.82;3.58;;;;;;;13.24;68.50;97070.22;4957168;29;20055;-80
2024/03/21 08:43:05;;;;;;;6.68;3.35;;;;;;;13.28;67.21;97066.22;4971691;28;20050;-79
2024/03/21 08:45:35;;;;;;;4.00;3.28;;;;;;;13.31;67.37;97068.50;4965609;28;20051;-80
2024/03/21 08:48:03;;;;;;;4.47;3.28;;;;;;;13.34;66.79;97065.53;4964806;28;20066;-80
2024/03/21 08:50:30;;;;;;;4.30;2.60;;;;;;;13.38;68.53;97074.59;4967806;28;20059;-79
2024/03/21 08:52:59;;;;;;;4.20;3.17;;;;;;;13.43;67.78;97072.25;4975131;28;20106;-81
2024/03/21 08:55:29;;;;;;;4.15;2.90;;;;;;;13.49;68.92;97087.22;4958961;28;20503;-79
2024/03/21 08:57:57;;;;;;;3.47;3.17;;;;;;;13.59;67.34;97077.22;4974586;28;20058;-79
2024/03/21 09:00:23;;;;;;;3.33;2.92;;;;;;;13.70;66.79;97077.72;4968568;28;20495;-80
2024/03/21 09:02:51;;;;;;;4.00;2.70;;;;;;;13.81;66.26;97085.06;4969540;28;20043;-80
2024/03/21 09:05:17;;;;;;;4.00;3.05;;;;;;;13.90;65.92;97083.09;4962326;28;20050;-79
2024/03/21 09:07:45;;;;;;;5.15;3.42;;;;;;;13.98;65.49;97088.22;4994488;28;20050;-79
2024/03/21 09:10:13;;;;;;;5.70;3.20;;;;;;;14.00;65.37;97084.41;4994710;28;20051;-79
2024/03/21 09:12:42;;;;;;;6.30;3.78;;;;;;;14.01;66.11;97093.91;4979061;28;20062;-79
2024/03/21 09:15:13;;;;;;;4.03;3.33;;;;;;;14.01;66.11;97100.94;4974504;28;20511;-79
2024/03/21 09:17:40;;;;;;;6.05;3.10;;;;;;;14.04;66.42;97094.50;4974515;28;20051;-80
2024/03/21 09:20:09;;;;;;;4.38;2.97;;;;;;;14.01;65.31;97107.00;4974838;28;20105;-80
2024/03/21 09:22:37;;;;;;;4.38;3.10;;;;;;;13.95;65.98;97099.91;4961152;28;20058;-79
2024/03/21 09:25:06;;;;;;;7.13;3.00;;;;;;;13.93;65.80;97104.53;4955834;29;20432;-80
2024/03/21 09:27:36;;;;;;;4.55;3.13;;;;;;;13.95;67.04;97102.53;4955557;29;20063;-80
2024/03/21 09:30:09;;;;;;;3.33;3.03;;;;;;;13.98;66.75;97111.81;4957440;28;20051;-80
2024/03/21 09:32:36;;;;;;;6.88;3.45;;;;;;;13.97;66.73;97105.78;4974231;28;20503;-80
2024/03/21 09:35:06;;;;;;;3.10;2.80;;;;;;;14.00;66.12;97110.63;4974933;28;20055;-79
2024/03/21 09:37:33;;;;;;;5.10;3.45;;;;;;;14.02;66.17;97106.00;4974803;28;20046;-79
2024/03/21 09:40:04;;;;;;;4.82;3.38;;;;;;;14.04;66.00;97110.22;4978973;28;20051;-80
2024/03/21 09:42:32;;;;;;;6.00;3.67;;;;;;;14.05;66.63;97106.63;4961655;28;20511;-79
2024/03/21 09:45:03;;;;;;;5.20;3.85;;;;;;;14.07;66.11;97089.69;4967236;28;20055;-82
2024/03/21 09:47:37;;;;;;;5.43;3.40;;;;;;;14.14;66.05;97097.59;4971765;28;20423;-83
2024/03/21 09:50:08;;;;;;;8.05;3.78;;;;;;;14.23;66.21;97099.06;4957927;29;20293;-83
2024/03/21 09:52:35;;;;;;;4.28;3.00;;;;;;;14.30;65.53;97105.19;4957629;29;20511;-82
2024/03/21 09:55:06;;;;;;;4.25;3.33;;;;;;;14.34;65.08;97095.09;4958034;29;20058;-82
2024/03/21 09:57:33;;;;;;;4.95;3.30;;;;;;;14.39;65.01;97104.03;4960870;28;20057;-82
2024/03/21 10:00:01;;;;;;;11.90;3.83;;;;;;;14.47;66.30;97104.84;4977271;28;20055;-82
2024/03/21 10:02:27;;;;;;;7.30;4.35;;;;;;;14.54;65.09;97103.06;4971856;28;20059;-82
2024/03/21 10:04:57;;;;;;;8.15;4.50;;;;;;;14.59;64.71;97114.66;4977068;28;20047;-82
2024/03/21 10:07:24;;;;;;;5.07;3.67;;;;;;;14.67;65.21;97115.50;4977767;28;20117;-79
2024/03/21 10:09:56;;;;;;;4.40;3.95;;;;;;;14.73;64.25;97106.84;4975773;28;20065;-79
2024/03/21 10:12:22;;;;;;;5.50;4.47;;;;;;;14.77;64.87;97106.25;4977907;28;20565;-82
2024/03/21 10:14:51;;;;;;;6.75;3.88;;;;;;;14.86;65.03;97113.97;4975285;28;20054;-82
2024/03/21 10:17:17;;;;;;;4.55;3.50;;;;;;;14.93;64.77;97114.78;4973566;28;20051;-82
2024/03/21 10:19:44;;;;;;;5.38;4.28;;;;;;;14.99;65.16;97104.31;4977347;28;20061;-82
2024/03/21 10:22:16;;;;;;;4.38;3.10;;;;;;;15.08;65.37;97099.69;4960536;28;20074;-79
2024/03/21 10:24:44;;;;;;;5.80;3.33;;;;;;;15.30;64.20;97104.81;4968760;28;20062;-80
2024/03/21 10:27:16;;;;;;;5.50;3.65;;;;;;;15.56;63.14;97114.56;4966750;28;20055;-79
2024/03/21 10:29:44;;;;;;;5.88;3.80;;;;;;;15.79;62.90;97111.56;4958255;29;20055;-80
2024/03/21 10:32:18;;;;;;;4.40;3.83;;;;;;;15.98;61.81;97110.78;4975271;28;20055;-80
2024/03/21 10:34:49;;;;;;;5.88;3.80;;;;;;;16.07;61.18;97121.91;4977167;28;20629;-79
2024/03/21 10:37:19;;;;;;;10.05;4.30;;;;;;;16.15;60.12;97108.50;4976793;28;20073;-82
2024/03/21 10:39:46;;;;;;;4.18;3.45;;;;;;;16.27;61.41;97112.16;4977396;28;20053;-83
2024/03/21 10:42:23;;;;;;;7.35;3.67;;;;;;;16.36;60.97;97114.56;4984289;28;20081;-80
2024/03/21 10:44:54;;;;;;;4.72;3.58;;;;;;;16.39;61.11;97116.78;4982986;28;20050;-79
2024/03/21 10:47:22;;;;;;;3.97;3.58;;;;;;;16.46;61.06;97105.22;4966865;29;20500;-80
2024/03/21 10:49:50;;;;;;;5.60;3.60;;;;;;;16.60;61.26;97098.09;4957404;28;20059;-80
2024/03/21 10:52:19;;;;;;;7.10;4.40;;;;;;;16.81;59.68;97106.75;4958580;29;20063;-79
2024/03/21 10:54:50;;;;;;;6.32;3.88;;;;;;;17.07;60.22;97104.00;4957956;28;20066;-80
2024/03/21 10:57:21;;;;;;;5.50;4.20;;;;;;;17.29;57.86;97108.94;4969431;28;20105;-79
2024/03/21 10:59:56;;;;;;;4.85;3.50;;;;;;;17.40;57.57;97102.19;4958260;29;20058;-80
2024/03/21 11:02:27;;;;;;;3.70;3.35;;;;;;;17.47;56.63;97100.31;4961278;28;20426;-80
2024/03/21 11:04:55;;;;;;;7.38;5.28;;;;;;;17.55;55.96;97107.19;4977505;28;20435;-80
2024/03/21 11:07:26;;;;;;;7.43;4.68;;;;;;;17.63;56.49;97109.56;4977510;28;20050;-80
2024/03/21 11:09:56;;;;;;;6.25;3.65;;;;;;;17.76;55.44;97106.03;4985460;28;20525;-80
2024/03/21 11:12:29;;;;;;;6.00;4.20;;;;;;;17.91;55.30;97111.81;4983591;28;20478;-80
2024/03/21 11:15:33;;;;;;;10.10;6.03;;;;;;;18.12;54.90;97114.03;4983847;28;20511;-83
2024/03/21 11:22:27;;;;;;;11.02;7.03;;;;;;;18.15;53.82;97112.00;4988858;28;20121;-80
2024/03/21 11:24:54;;;;;;;11.10;8.10;;;;;;;18.08;52.34;97110.25;4984999;28;20499;-80
2024/03/21 11:27:22;;;;;;;7.30;6.32;;;;;;;18.04;53.01;97111.72;4965434;28;20109;-83
2024/03/21 11:47:54;;;;;;;13.32;8.73;;;;;;;18.62;50.93;97115.00;5005014;28;20058;-81
2024/03/21 11:50:35;;;;;;;13.15;8.73;;;;;;;18.65;49.54;97115.38;4970483;28;20058;-81
2024/03/21 11:53:14;;;;;;;9.50;6.32;;;;;;;18.63;50.29;97116.59;4972384;28;20058;-81
2024/03/21 11:55:50;;;;;;;10.32;7.45;;;;;;;18.69;49.31;97126.28;4980717;28;20054;-81
2024/03/21 11:58:24;;;;;;;9.80;6.20;;;;;;;18.70;48.91;97125.28;4966829;28;20047;-81
2024/03/21 12:01:09;;;;;;;8.00;6.05;;;;;;;18.66;49.49;97137.31;4981736;28;20106;-81
2024/03/21 12:03:39;;;;;;;10.95;6.65;;;;;;;18.51;49.46;97130.53;5030271;23;20063;-79
2024/03/21 12:06:06;;;;;;;8.88;6.95;;;;;;;18.32;49.58;97135.00;4973621;28;20495;-78
2024/03/21 12:08:34;;;;;;;7.47;5.88;;;;;;;18.19;49.80;97135.13;4961078;28;20466;-78